createdAt,value
2022-12-11T00:01:29.389Z,-0.05
2022-12-11T00:04:01.525Z,-0.03
2022-12-11T00:06:34.621Z,-0.02
2022-12-11T00:09:06.841Z,-0.03
2022-12-11T00:11:39.004Z,-0.02
2022-12-11T00:14:09.559Z,0.00
2022-12-11T00:16:43.297Z,0.00
2022-12-11T00:19:15.812Z,0.02
2022-12-11T00:21:48.122Z,0.01
2022-12-11T00:24:20.239Z,-0.00
2022-12-11T00:26:50.816Z,0.01
2022-12-11T00:29:22.995Z,0.02
2022-12-11T00:31:53.553Z,-0.01
2022-12-11T00:34:25.692Z,-0.04
2022-12-11T00:36:57.019Z,-0.08
2022-12-11T00:39:52.904Z,-0.09
2022-12-11T00:42:25.032Z,-0.10
2022-12-11T00:44:56.501Z,-0.11
2022-12-11T00:47:28.922Z,-0.13
2022-12-11T00:49:59.585Z,-0.14
2022-12-11T00:52:32.161Z,-0.15
2022-12-11T00:55:02.780Z,-0.17
2022-12-11T00:57:34.954Z,-0.17
2022-12-11T01:00:06.550Z,-0.18
2022-12-11T01:02:39.274Z,-0.19
2022-12-11T01:05:12.480Z,-0.19
2022-12-11T01:07:44.956Z,-0.18
2022-12-11T01:10:33.480Z,-0.18
2022-12-11T01:13:07.938Z,-0.18
2022-12-11T01:15:43.644Z,-0.19
2022-12-11T01:18:16.964Z,-0.18
2022-12-11T01:20:49.067Z,-0.18
2022-12-11T01:23:19.761Z,-0.18
2022-12-11T01:25:52.345Z,-0.20
2022-12-11T01:28:24.598Z,-0.20
2022-12-11T01:30:55.088Z,-0.21
2022-12-11T01:33:27.230Z,-0.22
2022-12-11T01:35:57.812Z,-0.23
2022-12-11T01:38:30.236Z,-0.24
2022-12-11T01:41:02.283Z,-0.25
2022-12-11T01:43:32.924Z,-0.26
2022-12-11T01:46:05.367Z,-0.26
2022-12-11T01:48:42.103Z,-0.26
2022-12-11T01:51:15.477Z,-0.26
2022-12-11T01:53:53.886Z,-0.25
2022-12-11T01:56:26.602Z,-0.26
2022-12-11T01:59:02.887Z,-0.27
2022-12-11T02:01:39.166Z,-0.28
2022-12-11T02:04:12.458Z,-0.29
2022-12-11T02:06:46.890Z,-0.29
2022-12-11T02:09:21.226Z,-0.29
2022-12-11T02:12:02.565Z,-0.30
2022-12-11T02:14:40.163Z,-0.30
2022-12-11T02:17:18.131Z,-0.30
2022-12-11T02:20:03.446Z,-0.29
2022-12-11T02:23:00.151Z,-0.30
2022-12-11T02:25:38.093Z,-0.29
2022-12-11T02:28:25.198Z,-0.30
2022-12-11T02:31:03.803Z,-0.29
2022-12-11T02:33:43.400Z,-0.29
2022-12-11T02:36:18.685Z,-0.31
2022-12-11T02:38:54.368Z,-0.31
2022-12-11T02:41:30.107Z,-0.33
2022-12-11T02:44:03.720Z,-0.33
2022-12-11T02:46:38.011Z,-0.33
2022-12-11T02:49:12.766Z,-0.34
2022-12-11T02:51:45.701Z,-0.35
2022-12-11T02:54:21.810Z,-0.36
2022-12-11T02:56:59.046Z,-0.34
2022-12-11T02:59:37.057Z,-0.34
2022-12-11T03:02:09.561Z,-0.34
2022-12-11T03:04:43.141Z,-0.34
2022-12-11T03:07:19.888Z,-0.35
2022-12-11T03:09:53.131Z,-0.34
2022-12-11T03:12:29.186Z,-0.34
2022-12-11T03:15:05.586Z,-0.35
2022-12-11T03:17:45.527Z,-0.35
2022-12-11T03:20:26.494Z,-0.36
2022-12-11T03:23:03.607Z,-0.38
2022-12-11T03:25:43.701Z,-0.38
2022-12-11T03:28:20.777Z,-0.38
2022-12-11T03:30:54.962Z,-0.37
2022-12-11T03:33:32.803Z,-0.37
2022-12-11T03:36:10.865Z,-0.38
2022-12-11T03:38:49.201Z,-0.40
2022-12-11T03:41:25.818Z,-0.42
2022-12-11T03:44:00.049Z,-0.43
2022-12-11T03:46:35.319Z,-0.43
2022-12-11T03:49:11.867Z,-0.40
2022-12-11T03:51:45.792Z,-0.42
2022-12-11T03:54:18.638Z,-0.45
2022-12-11T03:56:52.216Z,-0.47
2022-12-11T03:59:24.768Z,-0.47
2022-12-11T04:01:56.975Z,-0.47
2022-12-11T04:04:29.149Z,-0.48
2022-12-11T04:06:59.726Z,-0.48
2022-12-11T04:09:31.858Z,-0.50
2022-12-11T04:12:03.846Z,-0.52
2022-12-11T04:14:53.616Z,-0.52
2022-12-11T04:17:43.149Z,-0.53
2022-12-11T04:20:32.658Z,-0.54
2022-12-11T04:23:24.646Z,-0.56
2022-12-11T04:26:04.369Z,-0.55
2022-12-11T04:28:37.289Z,-0.57
2022-12-11T04:31:12.189Z,-0.58
2022-12-11T04:33:44.554Z,-0.58
2022-12-11T04:36:17.036Z,-0.60
2022-12-11T04:38:49.075Z,-0.61
2022-12-11T04:41:21.271Z,-0.63
2022-12-11T04:43:53.616Z,-0.66
2022-12-11T04:46:25.778Z,-0.66
2022-12-11T04:48:58.146Z,-0.66
2022-12-11T04:51:30.944Z,-0.66
2022-12-11T04:54:03.081Z,-0.67
2022-12-11T04:56:35.275Z,-0.67
2022-12-11T04:59:05.761Z,-0.69
2022-12-11T05:01:37.882Z,-0.72
2022-12-11T05:04:10.902Z,-0.75
2022-12-11T05:06:43.960Z,-0.78
2022-12-11T05:09:16.180Z,-0.80
2022-12-11T05:11:49.326Z,-0.84
2022-12-11T05:14:21.566Z,-0.90
2022-12-11T05:16:53.618Z,-0.91
2022-12-11T05:19:25.714Z,-0.93
2022-12-11T05:21:56.265Z,-0.94
2022-12-11T05:24:28.532Z,-0.93
2022-12-11T05:26:59.007Z,-0.93
2022-12-11T05:29:31.003Z,-0.93
2022-12-11T05:32:03.111Z,-0.94
2022-12-11T05:34:35.443Z,-0.94
2022-12-11T05:37:07.186Z,-0.95
2022-12-11T05:39:40.222Z,-0.96
2022-12-11T05:42:12.569Z,-0.97
2022-12-11T05:44:44.741Z,-0.95
2022-12-11T05:47:17.024Z,-0.94
2022-12-11T05:49:47.868Z,-0.93
2022-12-11T05:52:20.019Z,-0.93
2022-12-11T05:54:52.578Z,-0.94
2022-12-11T05:57:24.688Z,-0.93
2022-12-11T05:59:56.976Z,-0.96
2022-12-11T06:02:29.233Z,-0.99
2022-12-11T06:05:01.439Z,-0.99
2022-12-11T06:07:34.712Z,-0.99
2022-12-11T06:10:07.777Z,-1.00
2022-12-11T06:12:40.975Z,-1.00
2022-12-11T06:15:13.670Z,-0.99
2022-12-11T06:17:45.969Z,-1.01
2022-12-11T06:20:16.802Z,-1.02
2022-12-11T06:22:49.284Z,-1.04
2022-12-11T06:25:21.443Z,-1.04
2022-12-11T06:27:53.321Z,-1.04
2022-12-11T06:30:37.541Z,-1.07
2022-12-11T06:33:12.073Z,-1.09
2022-12-11T06:35:44.597Z,-1.10
2022-12-11T06:38:15.181Z,-1.10
2022-12-11T06:40:47.639Z,-1.10
2022-12-11T06:43:19.753Z,-1.13
2022-12-11T06:45:51.989Z,-1.14
2022-12-11T06:48:22.614Z,-1.15
2022-12-11T06:50:55.023Z,-1.15
2022-12-11T06:53:27.149Z,-1.15
2022-12-11T06:56:07.374Z,-1.15
2022-12-11T06:58:40.113Z,-1.14
2022-12-11T07:01:19.904Z,-1.13
2022-12-11T07:03:53.745Z,-1.12
2022-12-11T07:06:26.582Z,-1.14
2022-12-11T07:08:59.128Z,-1.13
2022-12-11T07:11:31.369Z,-1.13
2022-12-11T07:14:03.652Z,-1.12
2022-12-11T07:16:36.247Z,-1.12
2022-12-11T07:19:08.857Z,-1.14
2022-12-11T07:21:41.022Z,-1.16
2022-12-11T07:24:11.654Z,-1.18
2022-12-11T07:26:43.724Z,-1.19
2022-12-11T07:29:16.723Z,-1.23
2022-12-11T07:31:49.636Z,-1.26
2022-12-11T07:34:22.034Z,-1.29
2022-12-11T07:36:54.081Z,-1.30
2022-12-11T07:39:27.131Z,-1.30
2022-12-11T07:41:59.291Z,-1.29
2022-12-11T07:44:31.996Z,-1.27
2022-12-11T07:47:04.756Z,-1.26
2022-12-11T07:49:37.032Z,-1.30
2022-12-11T07:52:07.634Z,-1.32
2022-12-11T07:54:41.713Z,-1.32
2022-12-11T07:57:14.448Z,-1.35
2022-12-11T07:59:47.846Z,-1.38
2022-12-11T08:02:20.776Z,-1.42
2022-12-11T08:04:53.635Z,-1.46
2022-12-11T08:07:26.403Z,-1.48
2022-12-11T08:09:59.601Z,-1.49
2022-12-11T08:12:31.577Z,-1.49
2022-12-11T08:15:04.464Z,-1.49
2022-12-11T08:17:40.167Z,-1.48
2022-12-11T08:20:13.436Z,-1.47
2022-12-11T08:22:46.141Z,-1.46
2022-12-11T08:25:19.911Z,-1.46
2022-12-11T08:27:52.483Z,-1.43
2022-12-11T08:30:25.558Z,-1.44
2022-12-11T08:32:57.974Z,-1.44
2022-12-11T08:35:30.504Z,-1.45
2022-12-11T08:38:02.672Z,-1.47
2022-12-11T08:40:34.784Z,-1.48
2022-12-11T08:43:07.083Z,-1.47
2022-12-11T08:45:37.724Z,-1.47
2022-12-11T08:48:12.597Z,-1.47
2022-12-11T08:50:45.498Z,-1.48
2022-12-11T08:53:18.310Z,-1.46
2022-12-11T08:55:52.073Z,-1.46
2022-12-11T08:58:24.757Z,-1.46
2022-12-11T09:00:56.888Z,-1.44
2022-12-11T09:03:30.018Z,-1.42
2022-12-11T09:11:47.037Z,-1.43
2022-12-11T09:14:19.529Z,-1.44
2022-12-11T09:16:52.483Z,-1.43
2022-12-11T09:19:30.616Z,-1.43
2022-12-11T09:22:04.424Z,-1.45
2022-12-11T09:24:34.966Z,-1.46
2022-12-11T09:27:07.999Z,-1.49
2022-12-11T09:29:40.577Z,-1.52
2022-12-11T09:32:12.911Z,-1.53
2022-12-11T09:34:46.731Z,-1.52
2022-12-11T09:37:19.809Z,-1.48
2022-12-11T09:39:52.849Z,-1.45
2022-12-11T09:42:32.323Z,-1.41
2022-12-11T09:45:07.210Z,-1.38
2022-12-11T09:47:42.243Z,-1.32
2022-12-11T09:50:20.693Z,-1.31
2022-12-11T09:53:05.236Z,-1.33
2022-12-11T09:55:44.428Z,-1.30
2022-12-11T09:58:26.153Z,-1.28
2022-12-11T10:01:05.042Z,-1.25
2022-12-11T10:04:03.946Z,-1.26
2022-12-11T10:06:43.137Z,-1.25
2022-12-11T10:09:24.442Z,-1.25
2022-12-11T10:12:09.867Z,-1.20
2022-12-11T10:14:54.408Z,-1.19
2022-12-11T10:17:32.167Z,-1.18
2022-12-11T10:20:16.068Z,-1.14
2022-12-11T10:22:49.455Z,-1.13
2022-12-11T10:25:28.542Z,-1.08
2022-12-11T10:28:01.500Z,-1.08
2022-12-11T10:30:41.531Z,-1.06
2022-12-11T10:33:22.614Z,-1.02
2022-12-11T10:35:56.800Z,-1.02
2022-12-11T10:38:32.240Z,-1.05
2022-12-11T10:41:10.385Z,-1.06
2022-12-11T10:43:44.557Z,-1.04
2022-12-11T10:46:21.663Z,-1.00
2022-12-11T10:48:56.740Z,-0.98
2022-12-11T10:51:37.529Z,-0.95
2022-12-11T10:54:19.043Z,-0.90
2022-12-11T10:56:51.926Z,-0.86
2022-12-11T10:59:31.205Z,-0.86
2022-12-11T11:02:03.725Z,-0.87
2022-12-11T11:04:44.779Z,-0.89
2022-12-11T11:07:20.678Z,-0.98
2022-12-11T11:10:04.724Z,-1.01
2022-12-11T11:12:42.235Z,-1.06
2022-12-11T11:15:18.996Z,-1.12
2022-12-11T11:17:55.860Z,-1.13
2022-12-11T11:20:52.180Z,-1.13
2022-12-11T11:23:25.788Z,-1.19
2022-12-11T11:25:59.767Z,-1.26
2022-12-11T11:28:36.801Z,-1.34
2022-12-11T11:31:13.073Z,-1.34
2022-12-11T11:33:56.703Z,-1.33
2022-12-11T11:36:34.625Z,-1.28
2022-12-11T11:39:21.904Z,-1.26
2022-12-11T11:42:00.122Z,-1.22
2022-12-11T11:44:38.844Z,-1.24
2022-12-11T11:47:16.161Z,-1.28
2022-12-11T11:49:59.452Z,-1.33
2022-12-11T11:52:36.704Z,-1.35
2022-12-11T11:55:21.639Z,-1.41
2022-12-11T11:58:02.041Z,-1.46
2022-12-11T12:00:34.411Z,-1.48
2022-12-11T12:03:14.498Z,-1.48
2022-12-11T12:05:55.287Z,-1.48
2022-12-11T12:08:41.038Z,-1.47
2022-12-11T12:11:26.223Z,-1.45
2022-12-11T12:14:29.194Z,-1.41
2022-12-11T12:17:17.517Z,-1.35
2022-12-11T12:20:00.195Z,-1.31
2022-12-11T12:22:48.962Z,-1.27
2022-12-11T12:25:27.236Z,-1.23
2022-12-11T12:28:07.124Z,-1.28
2022-12-11T12:30:57.043Z,-1.31
2022-12-11T12:33:39.420Z,-1.31
2022-12-11T12:36:23.988Z,-1.33
2022-12-11T12:39:01.958Z,-1.35
2022-12-11T12:41:44.757Z,-1.37
2022-12-11T12:44:19.330Z,-1.36
2022-12-11T12:47:01.886Z,-1.29
2022-12-11T12:49:39.831Z,-1.26
2022-12-11T12:52:16.870Z,-1.23
2022-12-11T12:55:07.592Z,-1.22
2022-12-11T12:57:43.341Z,-1.23
2022-12-11T13:00:30.029Z,-1.22
2022-12-11T13:03:14.377Z,-1.24
2022-12-11T13:05:56.902Z,-1.22
2022-12-11T13:08:38.966Z,-1.23
2022-12-11T13:11:13.939Z,-1.24
2022-12-11T13:13:54.937Z,-1.27
2022-12-11T13:16:38.590Z,-1.29
2022-12-11T13:19:28.174Z,-1.36
2022-12-11T13:22:04.357Z,-1.39
2022-12-11T13:24:46.679Z,-1.41
2022-12-11T13:27:25.745Z,-1.44
2022-12-11T13:30:22.633Z,-1.45
2022-12-11T13:33:03.247Z,-1.45
2022-12-11T13:35:37.348Z,-1.48
2022-12-11T13:38:17.927Z,-1.49
2022-12-11T13:40:56.931Z,-1.52
2022-12-11T13:43:32.428Z,-1.53
2022-12-11T13:46:07.126Z,-1.54
2022-12-11T13:48:45.367Z,-1.53
2022-12-11T13:51:21.673Z,-1.53
2022-12-11T13:54:05.683Z,-1.52
2022-12-11T13:56:37.861Z,-1.52
2022-12-11T13:59:24.852Z,-1.55
2022-12-11T14:02:01.569Z,-1.55
2022-12-11T14:04:35.137Z,-1.57
2022-12-11T14:07:10.974Z,-1.60
2022-12-11T14:09:47.052Z,-1.63
2022-12-11T14:12:22.985Z,-1.66
2022-12-11T14:14:59.299Z,-1.68
2022-12-11T14:17:34.025Z,-1.69
2022-12-11T14:20:16.390Z,-1.72
2022-12-11T14:22:47.143Z,-1.75
2022-12-11T14:25:26.186Z,-1.80
2022-12-11T14:27:59.230Z,-1.82
2022-12-11T14:30:34.304Z,-1.84
2022-12-11T14:33:07.650Z,-1.86
2022-12-11T14:35:43.819Z,-1.89
2022-12-11T14:38:20.970Z,-1.90
2022-12-11T14:40:56.817Z,-1.89
2022-12-11T14:43:35.003Z,-1.87
2022-12-11T14:46:16.900Z,-1.86
2022-12-11T14:49:00.422Z,-1.87
2022-12-11T14:51:40.389Z,-1.87
2022-12-11T14:54:22.289Z,-1.89
2022-12-11T14:56:55.178Z,-1.88
2022-12-11T14:59:32.256Z,-1.89
2022-12-11T15:02:22.965Z,-1.92
2022-12-11T15:05:14.160Z,-1.95
2022-12-11T15:07:57.482Z,-1.95
2022-12-11T15:10:36.787Z,-1.95
2022-12-11T15:13:11.287Z,-1.94
2022-12-11T15:15:50.235Z,-1.94
2022-12-11T15:18:27.006Z,-1.97
2022-12-11T15:21:00.863Z,-1.99
2022-12-11T15:23:38.248Z,-2.03
2022-12-11T15:26:10.733Z,-2.04
2022-12-11T15:28:43.171Z,-2.04
2022-12-11T15:31:28.533Z,-2.04
2022-12-11T15:34:00.903Z,-2.03
2022-12-11T15:36:36.802Z,-2.02
2022-12-11T15:39:09.797Z,-1.99
2022-12-11T15:41:44.769Z,-1.97
2022-12-11T15:44:23.751Z,-1.99
2022-12-11T15:46:56.857Z,-1.97
2022-12-11T15:49:29.413Z,-1.96
2022-12-11T15:52:01.566Z,-1.97
2022-12-11T15:54:32.115Z,-1.98
2022-12-11T15:57:07.453Z,-2.01
2022-12-11T15:59:40.425Z,-2.01
2022-12-11T16:02:14.171Z,-2.01
2022-12-11T16:04:46.341Z,-2.02
2022-12-11T16:07:18.985Z,-2.03
2022-12-11T16:09:53.075Z,-2.06
2022-12-11T16:12:25.319Z,-2.10
2022-12-11T16:14:57.568Z,-2.14
2022-12-11T16:17:28.199Z,-2.19
2022-12-11T16:20:00.479Z,-2.22
2022-12-11T16:22:33.060Z,-2.25
2022-12-11T16:25:06.078Z,-2.28
2022-12-11T16:27:38.503Z,-2.29
2022-12-11T16:30:13.305Z,-2.29
2022-12-11T16:32:45.534Z,-2.30
2022-12-11T16:35:19.033Z,-2.32
2022-12-11T16:37:54.068Z,-2.34
2022-12-11T16:40:26.503Z,-2.35
2022-12-11T16:42:59.617Z,-2.33
2022-12-11T16:45:32.356Z,-2.31
2022-12-11T16:48:07.935Z,-2.30
2022-12-11T16:50:42.383Z,-2.29
2022-12-11T16:53:15.861Z,-2.29
2022-12-11T16:55:48.765Z,-2.30
2022-12-11T16:58:21.518Z,-2.32
2022-12-11T17:01:02.139Z,-2.34
2022-12-11T17:03:35.757Z,-2.35
2022-12-11T17:06:11.544Z,-2.35
2022-12-11T17:08:44.733Z,-2.38
2022-12-11T17:11:19.668Z,-2.40
2022-12-11T17:13:56.830Z,-2.42
2022-12-11T17:16:31.400Z,-2.43
2022-12-11T17:19:07.241Z,-2.44
2022-12-11T17:21:39.483Z,-2.46
2022-12-11T17:24:12.002Z,-2.47
2022-12-11T17:26:44.570Z,-2.46
2022-12-11T17:29:17.561Z,-2.47
2022-12-11T17:31:52.053Z,-2.46
2022-12-11T17:34:25.062Z,-2.45
2022-12-11T17:36:57.334Z,-2.45
2022-12-11T17:39:30.005Z,-2.45
2022-12-11T17:42:02.626Z,-2.44
2022-12-11T17:44:35.363Z,-2.43
2022-12-11T17:47:11.213Z,-2.42
2022-12-11T17:49:43.730Z,-2.41
2022-12-11T17:52:16.363Z,-2.40
2022-12-11T17:54:49.152Z,-2.40
2022-12-11T17:57:21.830Z,-2.41
2022-12-11T17:59:56.523Z,-2.40
2022-12-11T18:02:29.039Z,-2.40
2022-12-11T18:05:01.335Z,-2.42
2022-12-11T18:07:31.944Z,-2.44
2022-12-11T18:10:05.131Z,-2.46
2022-12-11T18:12:37.609Z,-2.47
2022-12-11T18:15:13.132Z,-2.48
2022-12-11T18:17:45.822Z,-2.49
2022-12-11T18:20:18.909Z,-2.52
2022-12-11T18:22:52.911Z,-2.54
2022-12-11T18:25:25.460Z,-2.54
2022-12-11T18:27:59.611Z,-2.53
2022-12-11T18:30:31.907Z,-2.53
2022-12-11T18:33:04.693Z,-2.53
2022-12-11T18:35:37.635Z,-2.53
2022-12-11T18:38:10.590Z,-2.54
2022-12-11T18:40:42.857Z,-2.55
2022-12-11T18:43:15.184Z,-2.55
2022-12-11T18:45:47.526Z,-2.56
2022-12-11T18:48:20.085Z,-2.55
2022-12-11T18:50:53.803Z,-2.55
2022-12-11T18:53:26.678Z,-2.55
2022-12-11T18:56:00.750Z,-2.55
2022-12-11T18:58:33.430Z,-2.56
2022-12-11T19:01:12.333Z,-2.54
2022-12-11T19:03:45.104Z,-2.54
2022-12-11T19:06:19.497Z,-2.51
2022-12-11T19:08:51.950Z,-2.51
2022-12-11T19:11:25.948Z,-2.51
2022-12-11T19:13:58.927Z,-2.51
2022-12-11T19:16:34.645Z,-2.52
2022-12-11T19:19:10.301Z,-2.51
2022-12-11T19:21:43.170Z,-2.51
2022-12-11T19:24:20.017Z,-2.51
2022-12-11T19:26:52.714Z,-2.52
2022-12-11T19:29:27.339Z,-2.51
2022-12-11T19:31:59.738Z,-2.52
2022-12-11T19:34:32.094Z,-2.51
2022-12-11T19:37:04.317Z,-2.52
2022-12-11T19:39:39.103Z,-2.54
2022-12-11T19:42:11.200Z,-2.54
2022-12-11T19:44:41.955Z,-2.53
2022-12-11T19:47:14.003Z,-2.54
2022-12-11T19:49:44.641Z,-2.54
2022-12-11T19:52:17.192Z,-2.54
2022-12-11T19:54:47.753Z,-2.54
2022-12-11T19:57:20.027Z,-2.55
2022-12-11T19:59:57.062Z,-2.55
2022-12-11T20:02:29.938Z,-2.54
2022-12-11T20:05:02.053Z,-2.51
2022-12-11T20:07:34.343Z,-2.50
2022-12-11T20:10:05.416Z,-2.49
2022-12-11T20:12:37.726Z,-2.48
2022-12-11T20:15:12.077Z,-2.47
2022-12-11T20:17:44.753Z,-2.47
2022-12-11T20:20:17.126Z,-2.48
2022-12-11T20:22:52.691Z,-2.46
2022-12-11T20:25:25.504Z,-2.45
2022-12-11T20:27:58.303Z,-2.44
2022-12-11T20:30:30.730Z,-2.45
2022-12-11T20:33:03.057Z,-2.45
2022-12-11T20:35:35.400Z,-2.43
2022-12-11T20:38:07.906Z,-2.43
2022-12-11T20:40:40.691Z,-2.43
2022-12-11T20:43:14.067Z,-2.43
2022-12-11T20:45:51.188Z,-2.44
2022-12-11T20:48:23.372Z,-2.45
2022-12-11T20:50:55.854Z,-2.45
2022-12-11T20:53:29.189Z,-2.44
2022-12-11T20:56:02.015Z,-2.45
2022-12-11T20:58:34.593Z,-2.46
2022-12-11T21:01:07.703Z,-2.47
2022-12-11T21:03:42.275Z,-2.48
2022-12-11T21:06:22.338Z,-2.48
2022-12-11T21:08:55.327Z,-2.48
2022-12-11T21:11:25.998Z,-2.48
2022-12-11T21:13:58.395Z,-2.48
2022-12-11T21:16:30.926Z,-2.49
2022-12-11T21:19:03.377Z,-2.50
2022-12-11T21:21:39.878Z,-2.50
2022-12-11T21:24:16.980Z,-2.49
2022-12-11T21:26:49.953Z,-2.48
2022-12-11T21:29:22.313Z,-2.48
2022-12-11T21:31:54.988Z,-2.47
2022-12-11T21:34:27.886Z,-2.48
2022-12-11T21:37:00.019Z,-2.48
2022-12-11T21:39:34.752Z,-2.49
2022-12-11T21:42:11.271Z,-2.51
2022-12-11T21:47:35.874Z,-2.50
2022-12-11T21:50:08.910Z,-2.51
2022-12-11T21:52:41.588Z,-2.53
2022-12-11T21:55:14.895Z,-2.53
2022-12-11T21:57:47.089Z,-2.54
2022-12-11T22:00:18.245Z,-2.54
2022-12-11T22:03:14.514Z,-2.55
2022-12-11T22:05:46.843Z,-2.55
2022-12-11T22:08:19.231Z,-2.55
2022-12-11T22:10:51.516Z,-2.54
2022-12-11T22:13:22.132Z,-2.53
2022-12-11T22:15:55.182Z,-2.54
2022-12-11T22:18:28.573Z,-2.52
2022-12-11T22:21:01.102Z,-2.52
2022-12-11T22:23:33.441Z,-2.52
2022-12-11T22:26:04.038Z,-2.50
2022-12-11T22:28:36.202Z,-2.50
2022-12-11T22:31:12.739Z,-2.49
2022-12-11T22:33:44.959Z,-2.49
2022-12-11T22:36:17.871Z,-2.51
2022-12-11T22:38:50.171Z,-2.51
2022-12-11T22:41:26.042Z,-2.53
2022-12-11T22:43:58.896Z,-2.55
2022-12-11T22:46:32.392Z,-2.55
2022-12-11T22:49:04.618Z,-2.54
2022-12-11T22:51:37.288Z,-2.54
2022-12-11T22:54:09.676Z,-2.54
2022-12-11T22:56:41.958Z,-2.52
2022-12-11T22:59:17.356Z,-2.50
2022-12-11T23:01:49.497Z,-2.49
2022-12-11T23:04:20.094Z,-2.47
2022-12-11T23:06:52.313Z,-2.47
2022-12-11T23:09:25.184Z,-2.45
2022-12-11T23:11:58.559Z,-2.45
2022-12-11T23:14:31.160Z,-2.45
2022-12-11T23:17:03.189Z,-2.46
2022-12-11T23:19:36.411Z,-2.47
2022-12-11T23:22:08.687Z,-2.46
2022-12-11T23:24:40.955Z,-2.43
2022-12-11T23:27:14.919Z,-2.41
2022-12-11T23:29:47.049Z,-2.43
2022-12-11T23:32:19.156Z,-2.43
2022-12-11T23:34:49.803Z,-2.43
2022-12-11T23:37:21.891Z,-2.45
2022-12-11T23:39:52.513Z,-2.46
2022-12-11T23:42:24.700Z,-2.47
2022-12-11T23:44:55.219Z,-2.46
2022-12-11T23:47:27.367Z,-2.46
2022-12-11T23:49:57.892Z,-2.46
2022-12-11T23:52:29.916Z,-2.49
2022-12-11T23:55:00.400Z,-2.50
2022-12-11T23:57:32.788Z,-2.51
